Oakdale, PA (15071)

1:10 PM EST on February 14, 2016 (GMT -0500)
KPAIMPER1 | | Change Station
CLOSE
Current Station
Personal Weather Station
Location: Imperial, PA
Elevation: 1089 ft
Nearby Weather Stations

Elev 1089 ft 40.45 °N, 80.22 °W | Updated 49 seconds ago

Partly Cloudy
Partly Cloudy
16.4 °F
Feels Like 16 °F
N
0.0
Wind Variable Wind from SSE
Gusts 4.0 mph

Today
High -- | Low -- °F
--% Chance of Precip.
Yesterday
High -- | Low -- °F
Precip. -- in
Pressure 30.50 in
Visibility 10.0 miles
Clouds Few 3500 ft
Mostly Cloudy 25000 ft
Windchill 16 °F
Dew Point 1 °F
Humidity 50%
Rainfall 0.00 in
Snow Depth Not available.
7:16 AM 5:54 PM
Waxing Crescent, 44% visible
METAR KPIT 141751Z VRB03KT 10SM FEW035 BKN250 M09/M19 A3040 RMK AO2 SLP327 T10941194 11094 21189 58016
Pressure 30.50 in
Visibility 10.0 miles
Clouds Few 3500 ft
Mostly Cloudy 25000 ft
Windchill 16 °F
Dew Point 1 °F
Humidity 50%
Rainfall 0.00 in
Snow Depth Not available.
7:16 AM 5:54 PM
Waxing Crescent, 44% visible
METAR KPIT 141751Z VRB03KT 10SM FEW035 BKN250 M09/M19 A3040 RMK AO2 SLP327 T10941194 11094 21189 58016

10-Day Weather Forecast

Almanac

Astronomy

Feb. 14, 2016 Rise Set
Actual Time
Civil Twilight
Nautical Twilight
Astronomical Twilight
Moon
Length of Visible Light
Length of Day
Tomorrow will be .
, % of the Moon is Illuminated

Today's Extremes

State Highs State Lows

Community

WunderPhotos

Upload Photos

1,892,866 photos uploaded!

WunderBlog® & News

Nearby

Air Quality

  Air Quality AQ Index Pollutant
Not available.

Snow Depth

Station Depth Elevation

Earthquake Activity

City Distance Mag. Time & Date
Minimum magnitude displayed is 2.5.

Coastal Water Temperatures

Place Temperature

Stations

Nearby Weather Stations

Station Location Temp. Windchill Dew Point Humidity Wind Precip. Elev Updated Type
                   

Watches & Warnings

There are currently no watches in effect.